ADDS METAR Data INFO
IDs: Format: Raw Decoded Include TAF

Data at: 0751 UTC 21 Jul 2018

KCPU 210730Z AUTO 35006KT 10SM CLR 24/13 A2993 RMK AO2 T02370125